CST,Max TemperatureF,Mean TemperatureF,Min TemperatureF,Max Dew PointF,MeanDew PointF,Min DewpointF,Max Humidity, Mean Humidity, Min Humidity, Max Sea Level PressureIn, Mean Sea Level PressureIn, Min Sea Level PressureIn, Max VisibilityMiles, Mean VisibilityMiles, Min VisibilityMiles, Max Wind SpeedMPH, Mean Wind SpeedMPH, Max Gust SpeedMPH,PrecipitationIn, CloudCover, Events, WindDirDegrees
2012-12-1,64,54,44,52,48,39,93,75,63,30.19,30.12,30.04,10,10,7,16,7,22,0.00,,,178
2012-12-2,64,62,59,61,57,52,94,83,72,30.08,30.05,30.01,10,9,5,16,11,23,0.00,,Rain,200
2012-12-3,71,65,59,63,59,55,94,84,69,30.09,30.05,30.00,10,10,7,24,9,31,0.00,,,195
2012-12-4,62,48,35,59,49,34,94,86,67,30.29,30.12,29.99,10,10,5,12,6,,0.01,,Rain,280
2012-12-5,55,44,33,39,35,32,93,73,44,30.38,30.29,30.19,10,10,5,8,2,,0.00,0,,40
2012-12-6,51,43,35,48,39,32,94,85,71,30.18,30.06,29.97,10,9,3,6,2,,0.00,4,,114
2012-12-7,59,54,48,55,50,46,100,93,87,29.96,29.88,29.81,10,3,0,8,1,,0.16,7,Fog-Rain,180
2012-12-8,51,48,44,48,45,41,94,90,82,30.00,29.94,29.84,10,6,1,13,3,,0.02,8,Rain,13
2012-12-9,57,50,42,55,49,39,100,92,87,29.97,29.83,29.73,10,4,2,12,5,18,0.17,8,Rain-Thunderstorm,55
2012-12-10,42,36,30,39,29,23,93,83,75,30.06,29.92,29.81,10,10,10,13,5,21,0.00,8,,309
2012-12-11,39,32,24,27,23,21,93,74,49,30.25,30.15,30.07,10,10,10,12,2,,0.00,2,,228
2012-12-12,46,34,23,30,25,19,93,73,43,30.38,30.33,30.25,10,10,7,9,1,,0.00,0,,177
2012-12-13,51,38,24,32,26,21,93,67,38,30.39,30.32,30.23,10,10,7,12,3,,0.00,0,,184
2012-12-14,53,42,30,36,30,25,86,63,35,30.28,30.19,30.07,10,10,10,10,4,,0.00,0,,180
2012-12-15,55,48,42,52,46,34,94,85,62,30.06,29.83,29.70,10,10,5,22,10,29,0.15,6,Rain,178
2012-12-16,53,48,42,52,45,39,94,89,77,29.77,29.73,29.68,10,6,0,7,4,,0.00,2,Fog,227
2012-12-17,42,40,39,41,39,34,93,89,81,29.80,29.70,29.62,10,4,1,12,5,16,0.35,8,Rain-Thunderstorm,355
2012-12-18,55,45,35,43,38,34,93,78,54,29.91,29.81,29.72,10,9,5,18,6,23,0.00,2,,212
2012-12-19,55,42,30,46,37,27,93,80,71,30.04,29.92,29.65,10,8,3,16,6,22,0.00,3,,90
2012-12-20,57,44,30,54,38,23,94,78,63,29.85,29.52,29.28,10,9,2,32,16,43,0.26,7,Rain-Snow-Thunderstorm,228
2012-12-21,37,32,26,23,18,12,75,60,36,30.28,30.10,29.86,10,10,10,16,11,29,0.00,1,,292
2012-12-22,42,30,19,25,19,16,93,65,39,30.31,30.19,30.00,10,10,10,8,2,,0.00,0,,173
2012-12-23,55,44,33,36,32,25,81,65,36,29.99,29.93,29.84,10,10,10,8,4,,0.00,2,,263
2012-12-24,42,35,28,37,31,25,93,82,70,30.11,29.92,29.78,10,7,4,12,4,17,0.00,7,,330
2012-12-25,35,30,26,28,26,23,93,82,70,30.22,30.09,29.86,10,7,4,23,9,30,0.00,7,Rain,25
2012-12-26,33,30,28,28,28,27,93,84,75,30.13,29.92,29.72,10,6,0,23,16,32,0.02,8,Rain-Snow,341
2012-12-27,32,30,28,27,25,23,86,82,69,30.22,30.16,30.11,10,10,10,8,3,,0.00,8,,336
2012-12-28,35,32,28,30,29,25,100,88,81,30.11,29.98,29.85,10,6,0,8,3,,0.27,6,Rain-Snow,109
2012-12-29,32,20,8,30,24,7,100,87,74,30.36,30.10,29.84,10,6,0,13,2,21,0.15,6,Fog-Rain-Snow,300
2012-12-30,30,18,5,25,15,1,93,85,74,30.48,30.39,30.28,10,6,0,8,2,,0.00,2,Fog-Snow,187
2012-12-31,35,30,26,32,29,23,93,88,81,30.28,30.17,30.08,10,5,0,10,6,16,0.14,5,Rain-Snow,203